»·PEaware :: N2SC KBUR-KOAK

N2SC :: KBUR-KOAK

FLIGHT INFORMATION

Flight Status: Arrived
Operator: Privately registered:
United States
More flights under this callsign
Pilot: Slade E. (12022)
Aircraft: BEECH AIRCRAFT A90-E90 KING AIR
(BE9L)
More flights by this aircraft type
Origin: KBUR Bob Hope-Burbank
United States
Destination: KOAK Metro Oakland Intl
United States
More flights between these airports :: More routes between these airports
Route: VNY3 AVE PXN6
File this flight plan on PilotEdge
Remarks:
Altitude:
(Current/Filed)
16,000ft
Speed:
(Current/Filed)
225kts
Departed: 13-May-21 01:55 PM
Arrived: 13-May-21 03:20 PM
Distance/Time
Traveled:
283nm/1:25
Distance/Time
To Go:
Arrived

Flight Plot

Page will automatically refresh every two minutes.

Flight plan parsing failed; only flown route is shown


Map Options




Map Legend


Flown Route
Filed Route
Departure Airport
Arrival Airport
Navaid (VOR, NDB)
Fix

Horizontal Profiles

Position Reports

Time Latitude Longitude Heading Altitude Ground
Speed
13-May-21 13:38 34.196395 -118.365640 67 720ft 0kts
13-May-21 13:39 34.196395 -118.365640 67 720ft 0kts
13-May-21 13:40 34.196395 -118.365640 67 720ft 0kts
13-May-21 13:41 34.196395 -118.365640 67 720ft 0kts
13-May-21 13:42 34.196395 -118.365640 67 720ft 0kts
13-May-21 13:43 34.196395 -118.365640 67 720ft 0kts
13-May-21 13:44 34.196395 -118.365640 67 720ft 0kts
13-May-21 13:45 34.196395 -118.365640 66 720ft 0kts
13-May-21 13:47 34.196395 -118.365640 67 720ft 0kts
13-May-21 13:48 34.196395 -118.365640 67 720ft 0kts
13-May-21 13:49 34.196395 -118.365640 67 720ft 0kts
13-May-21 13:50 34.196395 -118.365640 67 720ft 0kts
13-May-21 13:51 34.196395 -118.365640 67 720ft 0kts
13-May-21 13:52 34.196402 -118.365622 67 720ft 0kts
13-May-21 13:53 34.196903 -118.367204 270 723ft 9kts
13-May-21 13:54 34.197111 -118.368926 325 724ft 3kts
13-May-21 13:55 34.197868 -118.357391 94 794ft 121kts
13-May-21 13:56 34.176687 -118.330353 202 2319ft 149kts
13-May-21 13:57 34.152199 -118.366351 279 4299ft 153kts
13-May-21 13:58 34.187927 -118.386303 354 6293ft 155kts
13-May-21 13:59 34.231153 -118.394119 353 8155ft 161kts
13-May-21 14:00 34.279111 -118.404891 353 9337ft 193kts
13-May-21 14:01 34.329259 -118.421291 324 10948ft 188kts
13-May-21 14:02 34.370901 -118.459129 319 12577ft 189kts
13-May-21 14:03 34.411629 -118.499678 320 14139ft 192kts
13-May-21 14:04 34.454295 -118.539570 319 15673ft 194kts
13-May-21 14:05 34.501062 -118.583252 322 16027ft 233kts
13-May-21 14:06 34.555766 -118.629671 324 15993ft 242kts
13-May-21 14:06 34.600786 -118.669657 321 16099ft 241kts
13-May-21 14:08 34.663950 -118.727585 321 16065ft 244kts
13-May-21 14:09 34.717916 -118.777353 320 16075ft 244kts
13-May-21 14:10 34.771759 -118.827935 319 16073ft 244kts
13-May-21 14:11 34.824632 -118.879606 323 16065ft 245kts
13-May-21 14:11 34.871621 -118.918330 323 16058ft 245kts
13-May-21 14:12 34.927659 -118.965879 324 16039ft 245kts
13-May-21 14:14 34.994268 -119.018542 325 16054ft 244kts
13-May-21 14:15 35.050058 -119.066094 322 16046ft 244kts
13-May-21 14:16 35.106368 -119.112495 324 16045ft 244kts
13-May-21 14:16 35.152527 -119.152411 323 16038ft 244kts
13-May-21 14:17 35.208386 -119.199339 327 16043ft 244kts
13-May-21 14:18 35.265999 -119.242779 325 16067ft 243kts
13-May-21 14:19 35.322248 -119.288564 324 16069ft 243kts
13-May-21 14:20 35.377366 -119.336695 322 16071ft 243kts
13-May-21 14:21 35.432968 -119.383716 324 16040ft 244kts
13-May-21 14:22 35.489312 -119.430060 326 15999ft 244kts
13-May-21 14:23 35.546267 -119.474783 321 15942ft 238kts
13-May-21 14:25 35.572315 -119.559384 279 15814ft 235kts
13-May-21 14:25 35.582450 -119.623169 281 15952ft 230kts
13-May-21 14:26 35.596347 -119.700063 281 15945ft 231kts
13-May-21 14:27 35.610370 -119.776932 281 15945ft 231kts
13-May-21 14:28 35.624389 -119.854040 281 15945ft 230kts
13-May-21 14:29 35.638297 -119.930835 281 15945ft 230kts
13-May-21 14:30 35.670087 -119.995721 327 15953ft 233kts
13-May-21 14:31 35.725887 -120.036950 327 15950ft 234kts
13-May-21 14:32 35.780897 -120.077615 327 15956ft 234kts
13-May-21 14:33 35.836649 -120.118885 327 15962ft 234kts
13-May-21 14:34 35.892361 -120.160209 327 15966ft 234kts
13-May-21 14:35 35.948065 -120.201587 327 15966ft 234kts
13-May-21 14:36 36.003790 -120.243055 327 15964ft 234kts
13-May-21 14:37 36.059520 -120.284591 327 15963ft 234kts
13-May-21 14:38 36.115151 -120.326126 327 15962ft 234kts
13-May-21 14:39 36.170771 -120.367731 327 15962ft 234kts
13-May-21 14:40 36.226278 -120.409303 327 15962ft 233kts
13-May-21 14:41 36.281691 -120.450886 327 15962ft 233kts
13-May-21 14:42 36.337106 -120.492528 327 15962ft 233kts
13-May-21 14:43 36.392635 -120.534343 327 15963ft 233kts
13-May-21 14:44 36.448052 -120.576142 327 15956ft 233kts
13-May-21 14:45 36.503358 -120.617921 327 15944ft 233kts
13-May-21 14:46 36.558495 -120.659648 327 15944ft 233kts
13-May-21 14:47 36.613962 -120.701692 327 15899ft 234kts
13-May-21 14:48 36.669375 -120.743766 327 15899ft 233kts
13-May-21 14:49 36.723287 -120.787781 317 15899ft 231kts
13-May-21 14:50 36.770748 -120.841882 316 15900ft 231kts
13-May-21 14:51 36.818207 -120.896175 316 15899ft 231kts
13-May-21 14:52 36.865386 -120.950201 316 15899ft 231kts
13-May-21 14:53 36.912767 -121.004558 316 15530ft 234kts
13-May-21 14:54 36.960125 -121.058941 316 14440ft 230kts
13-May-21 14:55 37.006989 -121.112883 316 13354ft 228kts
13-May-21 14:56 37.053167 -121.166123 317 12272ft 224kts
13-May-21 14:57 37.098593 -121.218610 317 11183ft 222kts
13-May-21 14:58 37.143964 -121.271064 316 10089ft 221kts
13-May-21 14:59 37.188790 -121.323040 316 8986ft 219kts
13-May-21 15:00 37.233461 -121.374921 316 7979ft 214kts
13-May-21 15:01 37.274086 -121.422001 315 7986ft 189kts
13-May-21 15:02 37.311998 -121.466436 316 8009ft 193kts
13-May-21 15:03 37.355880 -121.517553 316 8010ft 227kts
13-May-21 15:04 37.402813 -121.572293 316 8001ft 231kts
13-May-21 15:05 37.449947 -121.627460 316 7999ft 232kts
13-May-21 15:06 37.497018 -121.682666 315 7997ft 228kts
13-May-21 15:07 37.538799 -121.731789 315 7983ft 186kts
13-May-21 15:08 37.575214 -121.774648 315 7533ft 181kts
13-May-21 15:09 37.603458 -121.826963 286 6031ft 186kts
13-May-21 15:10 37.621685 -121.887632 290 4548ft 181kts
13-May-21 15:11 37.638610 -121.940030 289 3994ft 145kts
13-May-21 15:12 37.652451 -121.986847 289 3522ft 143kts
13-May-21 15:13 37.668403 -122.033023 292 2938ft 145kts
13-May-21 15:14 37.683552 -122.077966 289 2290ft 126kts
13-May-21 15:15 37.695121 -122.117350 292 1475ft 112kts
13-May-21 15:16 37.706690 -122.150679 296 1007ft 98kts
13-May-21 15:17 37.717045 -122.181142 294 483ft 83kts
13-May-21 15:18 37.725452 -122.206706 293 22ft 70kts
13-May-21 15:19 37.728452 -122.212905 347 7ft 0kts
13-May-21 15:20 37.729502 -122.212833 58 7ft 6kts
13-May-21 15:21 37.729488 -122.212562 117 7ft 0kts

Navigation Log

Ident Type
Flight plan parsing failed, navigation log unavailable